sensor_id;sensor_type;location;lat;lon;timestamp;pressure;altitude;pressure_sealevel;temperature;humidity
12172;BME280;6149;52.418;13.668;2023-03-19T00:02:22;100932.06;;;6.48;100.00
12172;BME280;6149;52.418;13.668;2023-03-19T00:04:51;100921.59;;;6.46;100.00
12172;BME280;6149;52.418;13.668;2023-03-19T00:07:21;100932.09;;;6.46;100.00
12172;BME280;6149;52.418;13.668;2023-03-19T00:09:50;100930.31;;;6.47;100.00
12172;BME280;6149;52.418;13.668;2023-03-19T00:12:17;100931.25;;;6.46;100.00
12172;BME280;6149;52.418;13.668;2023-03-19T00:14:44;100933.94;;;6.43;100.00
12172;BME280;6149;52.418;13.668;2023-03-19T00:17:11;100924.41;;;6.40;100.00
12172;BME280;6149;52.418;13.668;2023-03-19T00:19:37;100923.59;;;6.38;100.00
12172;BME280;6149;52.418;13.668;2023-03-19T00:22:05;100922.78;;;6.36;100.00
12172;BME280;6149;52.418;13.668;2023-03-19T00:24:31;100914.06;;;6.34;100.00
12172;BME280;6149;52.418;13.668;2023-03-19T00:27:01;100916.81;;;6.31;100.00
12172;BME280;6149;52.418;13.668;2023-03-19T00:29:29;100910.81;;;6.27;100.00
12172;BME280;6149;52.418;13.668;2023-03-19T00:31:57;100908.28;;;6.24;100.00
12172;BME280;6149;52.418;13.668;2023-03-19T00:34:25;100911.81;;;6.23;100.00
12172;BME280;6149;52.418;13.668;2023-03-19T00:36:54;100917.19;;;6.19;100.00
12172;BME280;6149;52.418;13.668;2023-03-19T00:39:21;100910.31;;;6.15;100.00
12172;BME280;6149;52.418;13.668;2023-03-19T00:41:51;100918.28;;;6.12;100.00
12172;BME280;6149;52.418;13.668;2023-03-19T00:44:24;100917.50;;;6.08;100.00
12172;BME280;6149;52.418;13.668;2023-03-19T00:46:51;100919.44;;;6.01;100.00
12172;BME280;6149;52.418;13.668;2023-03-19T00:49:19;100915.34;;;5.93;100.00
12172;BME280;6149;52.418;13.668;2023-03-19T00:51:46;100923.31;;;5.90;100.00
12172;BME280;6149;52.418;13.668;2023-03-19T00:54:13;100925.09;;;5.88;100.00
12172;BME280;6149;52.418;13.668;2023-03-19T00:56:41;100923.41;;;5.85;100.00
12172;BME280;6149;52.418;13.668;2023-03-19T00:59:09;100923.44;;;5.84;100.00
12172;BME280;6149;52.418;13.668;2023-03-19T01:01:37;100925.25;;;5.82;100.00
12172;BME280;6149;52.418;13.668;2023-03-19T01:04:04;100925.34;;;5.79;100.00
12172;BME280;6149;52.418;13.668;2023-03-19T01:06:30;100930.72;;;5.74;100.00
12172;BME280;6149;52.418;13.668;2023-03-19T01:08:58;100926.53;;;5.67;100.00
12172;BME280;6149;52.418;13.668;2023-03-19T01:11:27;100929.22;;;5.64;100.00
12172;BME280;6149;52.418;13.668;2023-03-19T01:13:54;100931.06;;;5.60;100.00
12172;BME280;6149;52.418;13.668;2023-03-19T01:16:21;100924.13;;;5.59;100.00
12172;BME280;6149;52.418;13.668;2023-03-19T01:18:49;100926.00;;;5.56;100.00
12172;BME280;6149;52.418;13.668;2023-03-19T01:21:17;100933.06;;;5.52;100.00
12172;BME280;6149;52.418;13.668;2023-03-19T01:23:44;100920.91;;;5.50;100.00
12172;BME280;6149;52.418;13.668;2023-03-19T01:26:11;100924.47;;;5.47;100.00
12172;BME280;6149;52.418;13.668;2023-03-19T01:28:37;100932.47;;;5.43;100.00
12172;BME280;6149;52.418;13.668;2023-03-19T01:31:07;100932.50;;;5.41;100.00
12172;BME280;6149;52.418;13.668;2023-03-19T01:33:34;100938.69;;;5.38;100.00
12172;BME280;6149;52.418;13.668;2023-03-19T01:36:04;100940.47;;;5.36;100.00
12172;BME280;6149;52.418;13.668;2023-03-19T01:38:32;100944.91;;;5.34;100.00
12172;BME280;6149;52.418;13.668;2023-03-19T01:41:01;100942.31;;;5.33;100.00
12172;BME280;6149;52.418;13.668;2023-03-19T01:43:30;100943.19;;;5.33;100.00
12172;BME280;6149;52.418;13.668;2023-03-19T01:45:59;100942.28;;;5.34;100.00
12172;BME280;6149;52.418;13.668;2023-03-19T01:48:37;100944.94;;;5.33;100.00
12172;BME280;6149;52.418;13.668;2023-03-19T01:51:09;100936.22;;;5.32;100.00
12172;BME280;6149;52.418;13.668;2023-03-19T01:53:39;100942.34;;;5.31;100.00
12172;BME280;6149;52.418;13.668;2023-03-19T01:56:11;100938.09;;;5.27;100.00
12172;BME280;6149;52.418;13.668;2023-03-19T01:58:42;100938.06;;;5.29;100.00
12172;BME280;6149;52.418;13.668;2023-03-19T02:01:14;100942.50;;;5.25;100.00
12172;BME280;6149;52.418;13.668;2023-03-19T02:03:40;100933.00;;;5.21;100.00
12172;BME280;6149;52.418;13.668;2023-03-19T02:06:09;100933.09;;;5.18;100.00
12172;BME280;6149;52.418;13.668;2023-03-19T02:08:37;100935.78;;;5.17;100.00
12172;BME280;6149;52.418;13.668;2023-03-19T02:11:04;100927.91;;;5.17;100.00
12172;BME280;6149;52.418;13.668;2023-03-19T02:13:33;100925.31;;;5.15;100.00
12172;BME280;6149;52.418;13.668;2023-03-19T02:16:01;100924.47;;;5.15;100.00
12172;BME280;6149;52.418;13.668;2023-03-19T02:18:30;100924.47;;;5.15;100.00
12172;BME280;6149;52.418;13.668;2023-03-19T02:21:01;100922.75;;;5.14;100.00
12172;BME280;6149;52.418;13.668;2023-03-19T02:23:36;100922.78;;;5.12;100.00
12172;BME280;6149;52.418;13.668;2023-03-19T02:26:13;100933.31;;;5.11;100.00
12172;BME280;6149;52.418;13.668;2023-03-19T02:28:44;100929.78;;;5.12;100.00
12172;BME280;6149;52.418;13.668;2023-03-19T02:31:14;100922.78;;;5.12;100.00
12172;BME280;6149;52.418;13.668;2023-03-19T02:33:56;100923.63;;;5.13;100.00
12172;BME280;6149;52.418;13.668;2023-03-19T02:36:26;100914.97;;;5.11;100.00
12172;BME280;6149;52.418;13.668;2023-03-19T02:38:58;100921.91;;;5.12;100.00
12172;BME280;6149;52.418;13.668;2023-03-19T02:41:31;100929.75;;;5.13;100.00
12172;BME280;6149;52.418;13.668;2023-03-19T02:44:02;100920.13;;;5.14;100.00
12172;BME280;6149;52.418;13.668;2023-03-19T02:46:29;100916.59;;;5.15;100.00
12172;BME280;6149;52.418;13.668;2023-03-19T02:48:57;100921.84;;;5.15;100.00
12172;BME280;6149;52.418;13.668;2023-03-19T02:51:25;100920.09;;;5.15;100.00
12172;BME280;6149;52.418;13.668;2023-03-19T02:53:51;100922.69;;;5.15;100.00
12172;BME280;6149;52.418;13.668;2023-03-19T02:56:18;100924.44;;;5.16;100.00
12172;BME280;6149;52.418;13.668;2023-03-19T02:58:46;100921.84;;;5.15;100.00
12172;BME280;6149;52.418;13.668;2023-03-19T03:01:14;100924.47;;;5.15;100.00
12172;BME280;6149;52.418;13.668;2023-03-19T03:03:41;100921.84;;;5.15;100.00
12172;BME280;6149;52.418;13.668;2023-03-19T03:06:08;100926.19;;;5.16;100.00
12172;BME280;6149;52.418;13.668;2023-03-19T03:08:35;100934.06;;;5.16;100.00
12172;BME280;6149;52.418;13.668;2023-03-19T03:11:04;100925.31;;;5.15;100.00
12172;BME280;6149;52.418;13.668;2023-03-19T03:13:33;100930.59;;;5.14;100.00
12172;BME280;6149;52.418;13.668;2023-03-19T03:16:02;100931.50;;;5.13;100.00
12172;BME280;6149;52.418;13.668;2023-03-19T03:18:29;100929.75;;;5.13;100.00
12172;BME280;6149;52.418;13.668;2023-03-19T03:20:56;100927.97;;;5.14;100.00
12172;BME280;6149;52.418;13.668;2023-03-19T03:23:27;100920.03;;;5.17;100.00
12172;BME280;6149;52.418;13.668;2023-03-19T03:25:53;100924.47;;;5.15;100.00
12172;BME280;6149;52.418;13.668;2023-03-19T03:28:23;100919.25;;;5.13;100.00
12172;BME280;6149;52.418;13.668;2023-03-19T03:30:50;100923.63;;;5.13;100.00
12172;BME280;6149;52.418;13.668;2023-03-19T03:33:18;100932.41;;;5.12;100.00
12172;BME280;6149;52.418;13.668;2023-03-19T03:35:44;100924.53;;;5.12;100.00
12172;BME280;6149;52.418;13.668;2023-03-19T03:38:11;100933.25;;;5.12;100.00
12172;BME280;6149;52.418;13.668;2023-03-19T03:40:37;100935.88;;;5.12;100.00
12172;BME280;6149;52.418;13.668;2023-03-19T03:43:07;100933.25;;;5.12;100.00
12172;BME280;6149;52.418;13.668;2023-03-19T03:45:35;100937.66;;;5.12;100.00
12172;BME280;6149;52.418;13.668;2023-03-19T03:48:02;100937.66;;;5.12;100.00
12172;BME280;6149;52.418;13.668;2023-03-19T03:50:31;100941.16;;;5.11;100.00
12172;BME280;6149;52.418;13.668;2023-03-19T03:52:57;100946.38;;;5.12;100.00
12172;BME280;6149;52.418;13.668;2023-03-19T03:55:26;100947.25;;;5.11;100.00
12172;BME280;6149;52.418;13.668;2023-03-19T03:57:55;100942.91;;;5.10;100.00
12172;BME280;6149;52.418;13.668;2023-03-19T04:00:26;100947.31;;;5.10;100.00
12172;BME280;6149;52.418;13.668;2023-03-19T04:02:54;100947.34;;;5.08;100.00
12172;BME280;6149;52.418;13.668;2023-03-19T04:05:24;100955.19;;;5.08;100.00
12172;BME280;6149;52.418;13.668;2023-03-19T04:07:55;100961.34;;;5.07;100.00
12172;BME280;6149;52.418;13.668;2023-03-19T04:10:25;100970.94;;;5.08;100.00
12172;BME280;6149;52.418;13.668;2023-03-19T04:12:52;100978.75;;;5.10;100.00
12172;BME280;6149;52.418;13.668;2023-03-19T04:15:21;100976.09;;;5.11;100.00
12172;BME280;6149;52.418;13.668;2023-03-19T04:17:48;100968.16;;;5.14;100.00
12172;BME280;6149;52.418;13.668;2023-03-19T04:20:14;100976.06;;;5.13;100.00
12172;BME280;6149;52.418;13.668;2023-03-19T04:22:43;100981.31;;;5.13;100.00
12172;BME280;6149;52.418;13.668;2023-03-19T04:25:14;100983.03;;;5.14;100.00
12172;BME280;6149;52.418;13.668;2023-03-19T04:27:41;100983.03;;;5.14;100.00
12172;BME280;6149;52.418;13.668;2023-03-19T04:30:12;100983.88;;;5.14;100.00
12172;BME280;6149;52.418;13.668;2023-03-19T04:32:40;100990.00;;;5.15;100.00
12172;BME280;6149;52.418;13.668;2023-03-19T04:35:10;100991.75;;;5.14;100.00
12172;BME280;6149;52.418;13.668;2023-03-19T04:37:36;100995.22;;;5.15;100.00
12172;BME280;6149;52.418;13.668;2023-03-19T04:40:06;100997.00;;;5.14;100.00
12172;BME280;6149;52.418;13.668;2023-03-19T04:42:35;100996.03;;;5.18;100.00
12172;BME280;6149;52.418;13.668;2023-03-19T04:45:03;100995.22;;;5.15;100.00
12172;BME280;6149;52.418;13.668;2023-03-19T04:47:31;100997.00;;;5.14;100.00
12172;BME280;6149;52.418;13.668;2023-03-19T04:49:57;101004.00;;;5.14;100.00
12172;BME280;6149;52.418;13.668;2023-03-19T04:52:28;101004.84;;;5.14;100.00
12172;BME280;6149;52.418;13.668;2023-03-19T04:54:56;100998.50;;;5.23;100.00
12172;BME280;6149;52.418;13.668;2023-03-19T04:57:27;101002.13;;;5.19;100.00
12172;BME280;6149;52.418;13.668;2023-03-19T04:59:57;100996.91;;;5.17;100.00
12172;BME280;6149;52.418;13.668;2023-03-19T05:02:25;101003.97;;;5.15;100.00
12172;BME280;6149;52.418;13.668;2023-03-19T05:04:52;101002.19;;;5.16;100.00
12172;BME280;6149;52.418;13.668;2023-03-19T05:07:19;100999.56;;;5.16;100.00
12172;BME280;6149;52.418;13.668;2023-03-19T05:09:46;101003.09;;;5.15;100.00
12172;BME280;6149;52.418;13.668;2023-03-19T05:12:14;101007.44;;;5.16;100.00
12172;BME280;6149;52.418;13.668;2023-03-19T05:14:42;101001.31;;;5.17;100.00
12172;BME280;6149;52.418;13.668;2023-03-19T05:17:10;101002.13;;;5.19;100.00
12172;BME280;6149;52.418;13.668;2023-03-19T05:19:39;101004.69;;;5.20;100.00
12172;BME280;6149;52.418;13.668;2023-03-19T05:22:05;101001.16;;;5.21;100.00
12172;BME280;6149;52.418;13.668;2023-03-19T05:24:32;101005.50;;;5.22;100.00
12172;BME280;6149;52.418;13.668;2023-03-19T05:27:00;100990.59;;;5.24;100.00
12172;BME280;6149;52.418;13.668;2023-03-19T05:29:29;100996.75;;;5.23;100.00
12172;BME280;6149;52.418;13.668;2023-03-19T05:31:56;100994.00;;;5.28;100.00
12172;BME280;6149;52.418;13.668;2023-03-19T05:34:31;100994.09;;;5.25;100.00
12172;BME280;6149;52.418;13.668;2023-03-19T05:36:58;100993.25;;;5.23;100.00
12172;BME280;6149;52.418;13.668;2023-03-19T05:39:30;100988.88;;;5.23;100.00
12172;BME280;6149;52.418;13.668;2023-03-19T05:41:56;100993.19;;;5.26;100.00
12172;BME280;6149;52.418;13.668;2023-03-19T05:44:23;101001.03;;;5.26;100.00
12172;BME280;6149;52.418;13.668;2023-03-19T05:46:53;101002.66;;;5.31;100.00
12172;BME280;6149;52.418;13.668;2023-03-19T05:49:20;100993.78;;;5.37;100.00
12172;BME280;6149;52.418;13.668;2023-03-19T05:51:48;100994.59;;;5.39;100.00
12172;BME280;6149;52.418;13.668;2023-03-19T05:54:15;100990.19;;;5.41;100.00
12172;BME280;6149;52.418;13.668;2023-03-19T05:56:43;100993.59;;;5.45;100.00
12172;BME280;6149;52.418;13.668;2023-03-19T05:59:11;100994.41;;;5.47;100.00
12172;BME280;6149;52.418;13.668;2023-03-19T06:01:38;100996.06;;;5.51;100.00
12172;BME280;6149;52.418;13.668;2023-03-19T06:04:05;100999.50;;;5.53;100.00
12172;BME280;6149;52.418;13.668;2023-03-19T06:06:32;100987.25;;;5.53;100.00
12172;BME280;6149;52.418;13.668;2023-03-19T06:09:02;100991.56;;;5.56;100.00
12172;BME280;6149;52.418;13.668;2023-03-19T06:11:30;100997.56;;;5.59;100.00
12172;BME280;6149;52.418;13.668;2023-03-19T06:13:57;101007.09;;;5.62;100.00
12172;BME280;6149;52.418;13.668;2023-03-19T06:16:23;100995.63;;;5.66;100.00
12172;BME280;6149;52.418;13.668;2023-03-19T06:18:57;101008.69;;;5.69;100.00
12172;BME280;6149;52.418;13.668;2023-03-19T06:21:24;100996.38;;;5.71;100.00
12172;BME280;6149;52.418;13.668;2023-03-19T06:23:54;101001.50;;;5.76;100.00
12172;BME280;6149;52.418;13.668;2023-03-19T06:26:28;100996.78;;;5.90;100.00
12172;BME280;6149;52.418;13.668;2023-03-19T06:28:56;100990.47;;;5.95;100.00
12172;BME280;6149;52.418;13.668;2023-03-19T06:31:24;100994.78;;;5.98;100.00
12172;BME280;6149;52.418;13.668;2023-03-19T06:33:55;101000.81;;;6.01;100.00
12172;BME280;6149;52.418;13.668;2023-03-19T06:36:22;100996.34;;;6.05;100.00
12172;BME280;6149;52.418;13.668;2023-03-19T06:38:50;100997.00;;;6.13;100.00
12172;BME280;6149;52.418;13.668;2023-03-19T06:41:17;101002.97;;;6.18;100.00
12172;BME280;6149;52.418;13.668;2023-03-19T06:43:47;101003.72;;;6.23;100.00
12172;BME280;6149;52.418;13.668;2023-03-19T06:46:13;101007.97;;;6.27;100.00
12172;BME280;6149;52.418;13.668;2023-03-19T06:48:40;101013.91;;;6.32;100.00
12172;BME280;6149;52.418;13.668;2023-03-19T06:51:07;101008.50;;;6.38;100.00
12172;BME280;6149;52.418;13.668;2023-03-19T06:53:35;101011.81;;;6.45;100.00
12172;BME280;6149;52.418;13.668;2023-03-19T06:56:03;101020.28;;;6.55;100.00
12172;BME280;6149;52.418;13.668;2023-03-19T06:58:30;101019.97;;;6.65;100.00
12172;BME280;6149;52.418;13.668;2023-03-19T07:00:59;101021.47;;;6.72;100.00
12172;BME280;6149;52.418;13.668;2023-03-19T07:03:27;101021.28;;;6.79;100.00
12172;BME280;6149;52.418;13.668;2023-03-19T07:05:55;101026.34;;;6.85;100.00
12172;BME280;6149;52.418;13.668;2023-03-19T07:08:24;101036.53;;;6.95;100.00
12172;BME280;6149;52.418;13.668;2023-03-19T07:10:55;101041.56;;;7.03;100.00
12172;BME280;6149;52.418;13.668;2023-03-19T07:13:22;101050.09;;;7.10;100.00
12172;BME280;6149;52.418;13.668;2023-03-19T07:15:49;101053.31;;;7.19;100.00
12172;BME280;6149;52.418;13.668;2023-03-19T07:18:17;101047.72;;;7.30;100.00
12172;BME280;6149;52.418;13.668;2023-03-19T07:20:45;101058.09;;;7.34;100.00
12172;BME280;6149;52.418;13.668;2023-03-19T07:23:11;101070.22;;;7.38;100.00
12172;BME280;6149;52.418;13.668;2023-03-19T07:25:40;101082.28;;;7.44;100.00
12172;BME280;6149;52.418;13.668;2023-03-19T07:28:07;101083.00;;;7.49;100.00
12172;BME280;6149;52.418;13.668;2023-03-19T07:30:34;101093.34;;;7.55;100.00
12172;BME280;6149;52.418;13.668;2023-03-19T07:33:03;101121.22;;;7.61;100.00
12172;BME280;6149;52.418;13.668;2023-03-19T07:35:32;101130.56;;;7.71;100.00
12172;BME280;6149;52.418;13.668;2023-03-19T07:38:00;101132.50;;;7.91;100.00
12172;BME280;6149;52.418;13.668;2023-03-19T07:40:29;101121.00;;;7.93;100.00
12172;BME280;6149;52.418;13.668;2023-03-19T07:42:56;101127.75;;;8.02;100.00
12172;BME280;6149;52.418;13.668;2023-03-19T07:45:25;101126.69;;;8.08;100.00
12172;BME280;6149;52.418;13.668;2023-03-19T07:47:56;101116.66;;;8.17;100.00
12172;BME280;6149;52.418;13.668;2023-03-19T07:50:28;101111.78;;;8.31;100.00
12172;BME280;6149;52.418;13.668;2023-03-19T07:52:58;101113.09;;;8.45;100.00
12172;BME280;6149;52.418;13.668;2023-03-19T07:55:29;101110.06;;;8.55;100.00
12172;BME280;6149;52.418;13.668;2023-03-19T07:57:56;101098.16;;;8.68;100.00
12172;BME280;6149;52.418;13.668;2023-03-19T08:00:26;101096.91;;;8.79;100.00
12172;BME280;6149;52.418;13.668;2023-03-19T08:02:54;101085.09;;;8.89;99.21
12172;BME280;6149;52.418;13.668;2023-03-19T08:05:28;101090.78;;;9.00;99.05
12172;BME280;6149;52.418;13.668;2023-03-19T08:08:11;101073.88;;;9.27;94.44
12172;BME280;6149;52.418;13.668;2023-03-19T08:10:39;101073.31;;;9.41;93.83
12172;BME280;6149;52.418;13.668;2023-03-19T08:13:09;101072.88;;;9.52;95.61
12172;BME280;6149;52.418;13.668;2023-03-19T08:15:40;101072.28;;;9.65;95.32
12172;BME280;6149;52.418;13.668;2023-03-19T08:18:08;101066.38;;;9.81;95.29
12172;BME280;6149;52.418;13.668;2023-03-19T08:20:36;101074.84;;;9.89;95.30
12172;BME280;6149;52.418;13.668;2023-03-19T08:23:05;101069.94;;;10.00;94.27
12172;BME280;6149;52.418;13.668;2023-03-19T08:25:40;101071.44;;;10.05;95.07
12172;BME280;6149;52.418;13.668;2023-03-19T08:28:10;101072.97;;;10.11;93.56
12172;BME280;6149;52.418;13.668;2023-03-19T08:30:39;101076.84;;;10.24;93.78
12172;BME280;6149;52.418;13.668;2023-03-19T08:33:08;101073.66;;;10.36;92.33
12172;BME280;6149;52.418;13.668;2023-03-19T08:35:37;101076.50;;;10.51;92.88
12172;BME280;6149;52.418;13.668;2023-03-19T08:38:16;101076.75;;;10.65;92.71
12172;BME280;6149;52.418;13.668;2023-03-19T08:40:45;101085.34;;;10.70;89.07
12172;BME280;6149;52.418;13.668;2023-03-19T08:43:14;101086.84;;;10.76;88.61
12172;BME280;6149;52.418;13.668;2023-03-19T08:45:42;101096.41;;;10.78;90.31
12172;BME280;6149;52.418;13.668;2023-03-19T08:48:09;101099.91;;;10.79;91.84
12172;BME280;6149;52.418;13.668;2023-03-19T08:50:36;101129.72;;;10.82;92.53
12172;BME280;6149;52.418;13.668;2023-03-19T08:53:07;101161.25;;;10.87;93.93
12172;BME280;6149;52.418;13.668;2023-03-19T08:55:43;101168.72;;;10.97;91.29
12172;BME280;6149;52.418;13.668;2023-03-19T08:58:12;101164.50;;;10.93;90.58
12172;BME280;6149;52.418;13.668;2023-03-19T09:00:42;101156.03;;;10.85;91.07
12172;BME280;6149;52.418;13.668;2023-03-19T09:03:12;101176.34;;;10.85;89.75
12172;BME280;6149;52.418;13.668;2023-03-19T09:05:48;101183.00;;;10.75;90.48
12172;BME280;6149;52.418;13.668;2023-03-19T09:08:16;101179.44;;;10.76;91.14
12172;BME280;6149;52.418;13.668;2023-03-19T09:10:47;101169.53;;;10.79;91.69
12172;BME280;6149;52.418;13.668;2023-03-19T09:13:15;101167.91;;;10.77;90.91
12172;BME280;6149;52.418;13.668;2023-03-19T09:15:45;101168.69;;;10.79;91.53
12172;BME280;6149;52.418;13.668;2023-03-19T09:18:13;101160.00;;;10.77;91.44
12172;BME280;6149;52.418;13.668;2023-03-19T09:20:47;101153.72;;;10.78;91.92
12172;BME280;6149;52.418;13.668;2023-03-19T09:23:17;101149.63;;;10.72;93.61
12172;BME280;6149;52.418;13.668;2023-03-19T09:25:52;101137.38;;;10.69;95.05
12172;BME280;6149;52.418;13.668;2023-03-19T09:28:19;101127.72;;;10.68;97.40
12172;BME280;6149;52.418;13.668;2023-03-19T09:30:49;101133.34;;;10.61;99.72
12172;BME280;6149;52.418;13.668;2023-03-19T09:33:17;101126.63;;;10.54;100.00
12172;BME280;6149;52.418;13.668;2023-03-19T09:35:53;101101.91;;;10.92;100.00
12172;BME280;6149;52.418;13.668;2023-03-19T09:38:20;101085.91;;;10.77;100.00
12172;BME280;6149;52.418;13.668;2023-03-19T09:41:06;101073.50;;;10.40;100.00
12172;BME280;6149;52.418;13.668;2023-03-19T09:43:59;101069.53;;;10.09;100.00
12172;BME280;6149;52.418;13.668;2023-03-19T09:46:38;101072.84;;;9.94;100.00
12172;BME280;6149;52.418;13.668;2023-03-19T09:49:24;101069.63;;;9.87;100.00
12172;BME280;6149;52.418;13.668;2023-03-19T09:51:57;101063.72;;;9.81;100.00
12172;BME280;6149;52.418;13.668;2023-03-19T09:54:32;101058.63;;;9.76;100.00
12172;BME280;6149;52.418;13.668;2023-03-19T09:57:07;101069.44;;;9.70;100.00
12172;BME280;6149;52.418;13.668;2023-03-19T09:59:36;101063.13;;;9.74;100.00
12172;BME280;6149;52.418;13.668;2023-03-19T10:02:28;101070.72;;;9.82;100.00
12172;BME280;6149;52.418;13.668;2023-03-19T10:05:24;101061.63;;;9.89;100.00
12172;BME280;6149;52.418;13.668;2023-03-19T10:08:30;101066.44;;;9.99;100.00
12172;BME280;6149;52.418;13.668;2023-03-19T10:11:21;101067.19;;;10.23;100.00
12172;BME280;6149;52.418;13.668;2023-03-19T10:14:16;101069.28;;;10.15;100.00
12172;BME280;6149;52.418;13.668;2023-03-19T10:17:15;101073.56;;;10.18;100.00
12172;BME280;6149;52.418;13.668;2023-03-19T10:19:54;101076.03;;;10.22;100.00
12172;BME280;6149;52.418;13.668;2023-03-19T10:22:28;101066.00;;;10.30;100.00
12172;BME280;6149;52.418;13.668;2023-03-19T10:25:03;101059.19;;;10.44;100.00
12172;BME280;6149;52.418;13.668;2023-03-19T10:27:36;101055.88;;;10.78;100.00
12172;BME280;6149;52.418;13.668;2023-03-19T10:30:16;101054.50;;;10.88;100.00
12172;BME280;6149;52.418;13.668;2023-03-19T10:32:51;101044.72;;;11.26;100.00
12172;BME280;6149;52.418;13.668;2023-03-19T10:35:26;101056.00;;;11.65;100.00
12172;BME280;6149;52.418;13.668;2023-03-19T10:38:15;101047.41;;;11.79;100.00
12172;BME280;6149;52.418;13.668;2023-03-19T10:40:59;101050.31;;;11.90;100.00
12172;BME280;6149;52.418;13.668;2023-03-19T10:43:32;101042.44;;;12.06;100.00
12172;BME280;6149;52.418;13.668;2023-03-19T10:46:03;101047.03;;;12.20;100.00
12172;BME280;6149;52.418;13.668;2023-03-19T10:48:42;101048.25;;;12.30;100.00
12172;BME280;6149;52.418;13.668;2023-03-19T10:51:13;101059.84;;;12.45;100.00
12172;BME280;6149;52.418;13.668;2023-03-19T10:53:42;101063.09;;;12.50;100.00
12172;BME280;6149;52.418;13.668;2023-03-19T10:56:17;101059.34;;;12.54;100.00
12172;BME280;6149;52.418;13.668;2023-03-19T10:59:00;101057.88;;;12.64;100.00
12172;BME280;6149;52.418;13.668;2023-03-19T11:01:35;101045.59;;;12.79;100.00
12172;BME280;6149;52.418;13.668;2023-03-19T11:04:12;101049.53;;;12.87;100.00
12172;BME280;6149;52.418;13.668;2023-03-19T11:06:48;101044.66;;;12.95;100.00
12172;BME280;6149;52.418;13.668;2023-03-19T11:09:23;101039.34;;;12.95;100.00
12172;BME280;6149;52.418;13.668;2023-03-19T11:12:06;101035.75;;;12.96;100.00
12172;BME280;6149;52.418;13.668;2023-03-19T11:14:40;101033.88;;;12.98;100.00
12172;BME280;6149;52.418;13.668;2023-03-19T11:17:20;101039.00;;;13.01;100.00
12172;BME280;6149;52.418;13.668;2023-03-19T11:19:53;101038.81;;;13.04;100.00
12172;BME280;6149;52.418;13.668;2023-03-19T11:22:23;101035.06;;;13.09;100.00
12172;BME280;6149;52.418;13.668;2023-03-19T11:25:02;101028.53;;;13.14;100.00
12172;BME280;6149;52.418;13.668;2023-03-19T11:27:57;101028.13;;;13.22;100.00
12172;BME280;6149;52.418;13.668;2023-03-19T11:30:37;101020.44;;;13.47;100.00
12172;BME280;6149;52.418;13.668;2023-03-19T11:33:47;101011.88;;;13.42;100.00
12172;BME280;6149;52.418;13.668;2023-03-19T11:36:52;101013.06;;;13.52;100.00
12172;BME280;6149;52.418;13.668;2023-03-19T11:39:28;101005.69;;;13.57;98.49
12172;BME280;6149;52.418;13.668;2023-03-19T11:42:34;101007.50;;;13.57;100.00
12172;BME280;6149;52.418;13.668;2023-03-19T11:45:29;101007.59;;;13.55;98.39
12172;BME280;6149;52.418;13.668;2023-03-19T11:48:14;101009.19;;;13.58;99.15
12172;BME280;6149;52.418;13.668;2023-03-19T11:50:57;101010.81;;;13.60;99.13
12172;BME280;6149;52.418;13.668;2023-03-19T11:53:33;101008.84;;;13.64;95.99
12172;BME280;6149;52.418;13.668;2023-03-19T11:56:15;101018.06;;;13.73;96.57
12172;BME280;6149;52.418;13.668;2023-03-19T11:59:23;101007.47;;;13.87;96.72
12172;BME280;6149;52.418;13.668;2023-03-19T12:02:53;101011.47;;;13.94;93.21
12172;BME280;6149;52.418;13.668;2023-03-19T12:05:54;101016.41;;;14.14;93.65
12172;BME280;6149;52.418;13.668;2023-03-19T12:08:30;101022.41;;;14.18;92.11
12172;BME280;6149;52.418;13.668;2023-03-19T12:11:15;101025.81;;;14.20;90.91
12172;BME280;6149;52.418;13.668;2023-03-19T12:13:57;101021.66;;;14.30;91.82
12172;BME280;6149;52.418;13.668;2023-03-19T12:16:48;101024.78;;;14.36;88.56
12172;BME280;6149;52.418;13.668;2023-03-19T12:19:34;101027.88;;;14.45;88.88
12172;BME280;6149;52.418;13.668;2023-03-19T12:22:35;101019.38;;;14.52;87.50
12172;BME280;6149;52.418;13.668;2023-03-19T12:25:27;101018.31;;;14.69;90.75
12172;BME280;6149;52.418;13.668;2023-03-19T12:28:10;101021.88;;;14.96;88.46
12172;BME280;6149;52.418;13.668;2023-03-19T12:30:48;101014.59;;;15.13;86.98
12172;BME280;6149;52.418;13.668;2023-03-19T12:33:38;101014.09;;;15.20;86.32
12172;BME280;6149;52.418;13.668;2023-03-19T12:36:17;101020.31;;;15.33;82.90
12172;BME280;6149;52.418;13.668;2023-03-19T12:38:57;101010.41;;;15.35;85.06
12172;BME280;6149;52.418;13.668;2023-03-19T12:41:31;101011.91;;;15.39;83.31
12172;BME280;6149;52.418;13.668;2023-03-19T12:44:04;101008.63;;;15.49;84.04
12172;BME280;6149;52.418;13.668;2023-03-19T12:46:42;101003.22;;;15.50;80.82
12172;BME280;6149;52.418;13.668;2023-03-19T12:49:15;101009.88;;;15.57;80.02
12172;BME280;6149;52.418;13.668;2023-03-19T12:51:51;101010.03;;;15.54;80.35
12172;BME280;6149;52.418;13.668;2023-03-19T12:54:28;101010.84;;;15.56;80.12
12172;BME280;6149;52.418;13.668;2023-03-19T12:57:04;101002.19;;;15.65;77.26
12172;BME280;6149;52.418;13.668;2023-03-19T12:59:43;101001.44;;;15.63;77.63
12172;BME280;6149;52.418;13.668;2023-03-19T13:02:19;100997.41;;;15.70;77.63
12172;BME280;6149;52.418;13.668;2023-03-19T13:04:50;100998.81;;;15.89;76.04
12172;BME280;6149;52.418;13.668;2023-03-19T13:07:29;101002.63;;;15.97;78.19
12172;BME280;6149;52.418;13.668;2023-03-19T13:10:05;100995.06;;;16.04;75.27
12172;BME280;6149;52.418;13.668;2023-03-19T13:12:35;101002.22;;;16.16;75.46
12172;BME280;6149;52.418;13.668;2023-03-19T13:15:08;100991.56;;;16.16;73.21